Terminal Aerodrome Forecast
Issued by NWS Quad Cities IA IL

Home | Current Version | Previous Version | Text Only | Print | Product List | Glossary On
Versions: 1 2 3 4 5 6 7 8 9 10 11 12 13 14 15 16 17 18 19 20 21 22 23 24 25 26 27 28 29 30 31 32 33 34 35 36
000
FTUS43 KDVN 211145
TAFDBQ
TAF
KDBQ 211145Z 2112/2212 14008KT 1/4SM -DZ FG OVC002
     FM211800 20006KT 1/2SM FG OVC002
     FM211900 21007KT 3SM BR OVC004
     FM212100 20008KT 5SM BR OVC007
     FM220300 VRB03KT 3SM BR OVC005
     FM220900 33005KT 1/2SM FG OVC003=

USA.gov is the U.S. government's official web portal to all federal, state and local government web resources and services.